createdAt,value
2023-02-11T00:00:59.162Z,101997.19
2023-02-11T00:03:29.180Z,102000.56
2023-02-11T00:06:00.194Z,102000.03
2023-02-11T00:08:31.592Z,101996.34
2023-02-11T00:11:01.114Z,101988.56
2023-02-11T00:13:31.040Z,101988.63
2023-02-11T00:16:00.565Z,101982.63
2023-02-11T00:18:30.489Z,101987.91
2023-02-11T00:21:00.014Z,101973.09
2023-02-11T00:23:29.911Z,101969.50
2023-02-11T00:26:00.913Z,101951.19
2023-02-11T00:28:32.375Z,101934.59
2023-02-11T00:31:02.882Z,101911.00
2023-02-11T00:33:32.829Z,101907.53
2023-02-11T00:36:05.346Z,101892.72
2023-02-11T00:38:35.665Z,101901.47
2023-02-11T00:41:06.917Z,101889.25
2023-02-11T00:43:37.073Z,101868.34
2023-02-11T00:46:07.224Z,101860.31
2023-02-11T00:48:37.596Z,101851.69
2023-02-11T00:51:07.538Z,101848.25
2023-02-11T00:53:37.745Z,101842.97
2023-02-11T00:56:08.924Z,101827.22
2023-02-11T00:58:39.612Z,101815.03
2023-02-11T01:01:09.339Z,101793.97
2023-02-11T01:03:40.415Z,101807.06
2023-02-11T01:06:10.687Z,101799.28
2023-02-11T01:08:41.391Z,101795.09
2023-02-11T01:11:15.209Z,101774.13
2023-02-11T01:13:48.405Z,101757.41
2023-02-11T01:16:18.745Z,101767.88
2023-02-11T01:18:48.691Z,101778.38
2023-02-11T01:21:20.702Z,101781.81
2023-02-11T01:23:51.881Z,101774.13
2023-02-11T01:26:22.920Z,101774.84
2023-02-11T01:28:53.342Z,101764.50
2023-02-11T01:31:22.930Z,101772.28
2023-02-11T01:33:52.833Z,101766.16
2023-02-11T01:36:22.473Z,101768.81
2023-02-11T01:38:52.451Z,101764.31
2023-02-11T01:41:24.611Z,101757.41
2023-02-11T01:43:54.559Z,101745.09
2023-02-11T01:46:32.540Z,101737.13
2023-02-11T01:49:04.848Z,101733.72
2023-02-11T01:51:36.743Z,101735.31
2023-02-11T01:54:25.290Z,101716.75
2023-02-11T01:57:15.166Z,101714.88
2023-02-11T01:59:48.311Z,101709.56
2023-02-11T02:02:20.501Z,101690.50
2023-02-11T02:04:54.003Z,101674.66
2023-02-11T02:07:30.646Z,101679.00
2023-02-11T02:10:01.999Z,101671.00
2023-02-11T02:12:33.183Z,101670.13
2023-02-11T02:15:21.437Z,101664.16
2023-02-11T02:17:55.687Z,101665.75
2023-02-11T02:20:53.032Z,101663.72
2023-02-11T02:23:39.940Z,101668.28
2023-02-11T02:26:21.367Z,101664.72
2023-02-11T02:29:11.867Z,101664.66
2023-02-11T02:31:53.682Z,101669.00
2023-02-11T02:34:28.656Z,101654.97
2023-02-11T02:37:03.617Z,101647.81
2023-02-11T02:39:35.304Z,101650.41
2023-02-11T02:42:05.916Z,101647.06
2023-02-11T02:44:35.718Z,101636.59
2023-02-11T02:47:05.613Z,101626.16
2023-02-11T02:49:36.664Z,101626.13
2023-02-11T02:52:12.275Z,101614.91
2023-02-11T02:55:02.730Z,101606.97
2023-02-11T02:57:34.440Z,101590.34
2023-02-11T03:00:13.347Z,101592.06
2023-02-11T03:02:51.669Z,101592.91
2023-02-11T03:05:25.486Z,101592.03
2023-02-11T03:07:59.574Z,101579.06
2023-02-11T03:10:30.760Z,101572.03
2023-02-11T03:13:01.451Z,101580.16
2023-02-11T03:15:33.731Z,101571.28
2023-02-11T03:18:05.011Z,101571.25
2023-02-11T03:20:37.938Z,101552.00
2023-02-11T03:23:13.405Z,101563.38
2023-02-11T03:25:45.679Z,101552.97
2023-02-11T03:28:17.724Z,101546.00
2023-02-11T03:30:50.816Z,101540.69
2023-02-11T03:33:25.708Z,101533.84
2023-02-11T03:35:58.437Z,101539.78
2023-02-11T03:38:31.829Z,101545.91
2023-02-11T03:41:03.474Z,101548.53
2023-02-11T03:43:36.058Z,101539.81
2023-02-11T03:46:06.419Z,101516.31
2023-02-11T03:48:41.348Z,101522.31
2023-02-11T03:51:13.878Z,101517.75
2023-02-11T03:53:45.798Z,101517.88
2023-02-11T03:56:19.056Z,101518.69
2023-02-11T03:58:50.048Z,101520.16
2023-02-11T04:01:19.841Z,101515.69
2023-02-11T04:03:51.352Z,101511.28
2023-02-11T04:06:22.570Z,101508.44
2023-02-11T04:08:52.470Z,101507.59
2023-02-11T04:11:22.117Z,101518.00
2023-02-11T04:13:52.158Z,101507.59
2023-02-11T04:16:21.919Z,101508.44
2023-02-11T04:18:51.959Z,101508.59
2023-02-11T04:21:23.231Z,101491.16
2023-02-11T04:23:53.148Z,101495.44
2023-02-11T04:26:22.920Z,101483.09
2023-02-11T04:28:53.540Z,101469.09
2023-02-11T04:31:23.225Z,101457.84
2023-02-11T04:33:53.311Z,101451.09
2023-02-11T04:36:24.352Z,101449.22
2023-02-11T04:38:54.515Z,101457.03
2023-02-11T04:41:24.070Z,101459.88
2023-02-11T04:43:53.890Z,101456.22
2023-02-11T04:46:23.569Z,101451.94
2023-02-11T04:48:53.570Z,101446.78
2023-02-11T04:51:24.750Z,101381.31
2023-02-11T04:53:54.798Z,101431.97
2023-02-11T04:56:24.414Z,101424.25
2023-02-11T04:58:54.586Z,101411.28
2023-02-11T05:01:24.228Z,101412.25
2023-02-11T05:03:54.383Z,101386.13
2023-02-11T05:06:25.599Z,101379.13
2023-02-11T05:08:55.620Z,101369.69
2023-02-11T05:11:26.580Z,101360.81
2023-02-11T05:13:56.466Z,101360.81
2023-02-11T05:16:26.113Z,101357.31
2023-02-11T05:18:56.099Z,101367.16
2023-02-11T05:21:27.625Z,101344.38
2023-02-11T05:23:57.523Z,101344.53
2023-02-11T05:26:27.620Z,101347.28
2023-02-11T05:28:58.099Z,101334.22
2023-02-11T05:31:27.752Z,101342.09
2023-02-11T05:33:57.908Z,101347.28
2023-02-11T05:36:30.649Z,101338.56
2023-02-11T05:39:02.209Z,101325.41
2023-02-11T05:41:31.739Z,101328.78
2023-02-11T05:44:01.918Z,101317.66
2023-02-11T05:46:31.986Z,101316.69
2023-02-11T05:49:02.049Z,101295.75
2023-02-11T05:51:33.131Z,101315.00
2023-02-11T05:54:03.928Z,101309.84
2023-02-11T05:56:33.499Z,101301.91
2023-02-11T05:59:03.429Z,101289.03
2023-02-11T06:01:33.198Z,101282.03
2023-02-11T06:04:03.078Z,101285.41
2023-02-11T06:06:34.292Z,101275.66
2023-02-11T06:09:04.343Z,101279.34
2023-02-11T06:11:33.930Z,101268.22
2023-02-11T06:14:03.908Z,101254.44
2023-02-11T06:16:33.468Z,101255.41
2023-02-11T06:19:03.519Z,101244.22
2023-02-11T06:21:43.235Z,101234.53
2023-02-11T06:24:17.475Z,101244.13
2023-02-11T06:26:51.478Z,101241.56
2023-02-11T06:29:21.478Z,101249.66
2023-02-11T06:31:51.459Z,101230.47
2023-02-11T06:34:21.589Z,101251.56
2023-02-11T06:36:52.669Z,101240.56
2023-02-11T06:39:22.821Z,101245.84
2023-02-11T06:41:52.495Z,101243.25
2023-02-11T06:44:22.520Z,101239.56
2023-02-11T06:46:52.212Z,101250.84
2023-02-11T06:49:22.541Z,101238.69
2023-02-11T06:51:53.541Z,101247.69
2023-02-11T06:54:23.608Z,101244.97
2023-02-11T06:56:53.300Z,101248.50
2023-02-11T06:59:23.292Z,101255.59
2023-02-11T07:01:53.126Z,101275.72
2023-02-11T07:04:23.188Z,101268.00
2023-02-11T07:06:54.610Z,101263.66
2023-02-11T07:09:25.035Z,101282.94
2023-02-11T07:11:54.660Z,101277.75
2023-02-11T07:14:24.802Z,101276.97
2023-02-11T07:16:54.791Z,101281.31
2023-02-11T07:19:25.312Z,101275.13
2023-02-11T07:21:56.830Z,101271.72
2023-02-11T07:24:27.179Z,101266.47
2023-02-11T07:26:56.870Z,101278.69
2023-02-11T07:29:27.166Z,101248.94
2023-02-11T07:31:58.527Z,101238.28
2023-02-11T07:34:28.665Z,101244.44
2023-02-11T07:36:59.791Z,101242.63
2023-02-11T07:39:29.972Z,101229.59
2023-02-11T07:42:00.277Z,101234.84
2023-02-11T07:44:31.451Z,101232.22
2023-02-11T07:47:01.649Z,101223.59
2023-02-11T07:49:31.779Z,101221.09
2023-02-11T07:52:02.909Z,101228.13
2023-02-11T07:54:32.908Z,101205.41
2023-02-11T07:57:04.117Z,101204.53
2023-02-11T07:59:34.440Z,101207.28
2023-02-11T08:02:04.600Z,101216.91
2023-02-11T08:04:34.849Z,101201.97
2023-02-11T08:07:05.878Z,101205.59
2023-02-11T08:09:36.530Z,101202.13
2023-02-11T08:12:06.876Z,101199.66
2023-02-11T08:14:37.337Z,101190.09
2023-02-11T08:17:07.894Z,101206.00
2023-02-11T08:19:37.818Z,101205.22
2023-02-11T08:22:09.103Z,101200.22
2023-02-11T08:24:39.596Z,101200.22
2023-02-11T08:27:09.230Z,101197.72
2023-02-11T08:29:39.205Z,101199.53
2023-02-11T08:32:08.809Z,101206.69
2023-02-11T08:34:38.985Z,101186.44
2023-02-11T08:37:10.559Z,101169.94
2023-02-11T08:39:40.474Z,101147.09
2023-02-11T08:42:10.093Z,101151.50
2023-02-11T08:44:40.113Z,101146.31
2023-02-11T08:47:09.664Z,101136.69
2023-02-11T08:49:41.759Z,101131.50
2023-02-11T08:52:13.142Z,101126.25
2023-02-11T08:54:43.453Z,101119.31
2023-02-11T08:57:13.012Z,101130.81
2023-02-11T08:59:43.058Z,101122.16
2023-02-11T09:02:13.455Z,101138.88
2023-02-11T09:04:43.303Z,101152.09
2023-02-11T09:07:14.481Z,101155.63
2023-02-11T09:09:44.400Z,101160.09
2023-02-11T09:12:13.932Z,101168.81
2023-02-11T09:14:44.057Z,101166.41
2023-02-11T09:17:13.804Z,101169.94
2023-02-11T09:19:43.733Z,101185.81
2023-02-11T09:22:14.881Z,101185.09
2023-02-11T09:24:44.944Z,101188.53
2023-02-11T09:27:14.527Z,101167.50
2023-02-11T09:29:44.575Z,101159.69
2023-02-11T09:32:14.384Z,101159.78
2023-02-11T09:34:44.506Z,101148.50
2023-02-11T09:37:15.608Z,101167.22
2023-02-11T09:39:46.470Z,101164.44
2023-02-11T09:42:35.151Z,101175.94
2023-02-11T09:45:06.279Z,101176.00
2023-02-11T09:47:37.874Z,101182.25
2023-02-11T09:50:08.796Z,101188.41
2023-02-11T09:52:43.088Z,101179.75
2023-02-11T09:55:18.840Z,101200.75
2023-02-11T09:57:48.720Z,101208.63
2023-02-11T10:00:23.359Z,101207.78
2023-02-11T10:03:02.469Z,101208.63
2023-02-11T10:05:43.960Z,101193.59
2023-02-11T10:08:18.313Z,101204.09
2023-02-11T10:10:52.615Z,101194.69
2023-02-11T10:13:30.809Z,101185.13
2023-02-11T10:16:06.026Z,101173.75
2023-02-11T10:18:41.663Z,101173.88
2023-02-11T10:21:16.730Z,101176.78
2023-02-11T10:23:51.882Z,101196.19
2023-02-11T10:26:22.086Z,101182.28
2023-02-11T10:28:54.467Z,101186.81
2023-02-11T10:31:27.536Z,101195.47
2023-02-11T10:34:00.879Z,101213.88
2023-02-11T10:36:32.309Z,101214.69
2023-02-11T10:39:11.684Z,101224.31
2023-02-11T10:41:45.110Z,101234.88
2023-02-11T10:44:26.169Z,101232.16
2023-02-11T10:46:57.533Z,101232.09
2023-02-11T10:49:39.279Z,101257.50
2023-02-11T10:52:16.905Z,101264.44
2023-02-11T10:54:57.321Z,101263.38
2023-02-11T10:57:30.449Z,101272.03
2023-02-11T11:00:01.965Z,101288.72
2023-02-11T11:02:34.801Z,101282.47
2023-02-11T11:05:05.990Z,101283.28
2023-02-11T11:07:36.349Z,101292.06
2023-02-11T11:10:07.609Z,101313.06
2023-02-11T11:12:48.297Z,101299.97
2023-02-11T11:15:20.154Z,101301.66
2023-02-11T11:17:51.073Z,101299.09
2023-02-11T11:20:22.280Z,101309.63
2023-02-11T11:22:54.503Z,101320.97
2023-02-11T11:25:25.992Z,101325.41
2023-02-11T11:27:59.000Z,101327.19
2023-02-11T11:30:33.213Z,101334.13
2023-02-11T11:33:03.516Z,101333.34
2023-02-11T11:35:34.581Z,101332.38
2023-02-11T11:38:05.579Z,101337.66
2023-02-11T11:40:36.436Z,101335.09
2023-02-11T11:43:23.125Z,101348.25
2023-02-11T11:45:57.037Z,101343.81
2023-02-11T11:48:29.025Z,101353.53
2023-02-11T11:51:01.525Z,101354.34
2023-02-11T11:53:37.917Z,101357.09
2023-02-11T11:56:08.607Z,101364.06
2023-02-11T11:58:40.459Z,101357.94
2023-02-11T12:01:20.003Z,101369.28
2023-02-11T12:04:13.892Z,101363.06
2023-02-11T12:06:52.265Z,101378.88
2023-02-11T12:09:28.486Z,101378.94
2023-02-11T12:12:06.078Z,101378.06
2023-02-11T12:14:43.112Z,101379.94
2023-02-11T12:17:16.525Z,101393.22
2023-02-11T12:20:02.917Z,101390.69
2023-02-11T12:22:39.932Z,101387.25
2023-02-11T12:25:27.289Z,101390.97
2023-02-11T12:28:03.232Z,101396.25
2023-02-11T12:31:06.156Z,101398.88
2023-02-11T12:33:47.940Z,101398.94
2023-02-11T12:36:24.541Z,101408.72
2023-02-11T12:38:59.975Z,101416.63
2023-02-11T12:41:57.004Z,101400.03
2023-02-11T12:44:30.794Z,101413.22
2023-02-11T12:47:10.474Z,101426.44
2023-02-11T12:49:57.025Z,101429.97
2023-02-11T12:52:31.354Z,101421.25
2023-02-11T12:55:04.666Z,101425.66
2023-02-11T12:57:36.993Z,101420.47
2023-02-11T13:00:09.174Z,101436.31
2023-02-11T13:02:44.754Z,101438.19
2023-02-11T13:05:21.524Z,101433.84
2023-02-11T13:07:53.345Z,101436.44
2023-02-11T13:10:30.629Z,101448.84
2023-02-11T13:13:19.608Z,101448.75
2023-02-11T13:15:53.210Z,101450.53
2023-02-11T13:18:29.056Z,101457.63
2023-02-11T13:21:02.788Z,101463.81
2023-02-11T13:23:38.396Z,101470.97
2023-02-11T13:26:12.372Z,101474.53
2023-02-11T13:28:46.600Z,101479.72
2023-02-11T13:31:20.354Z,101482.31
2023-02-11T13:33:52.978Z,101481.53
2023-02-11T13:36:24.388Z,101487.75
2023-02-11T13:39:04.617Z,101479.84
2023-02-11T13:41:35.760Z,101491.28
2023-02-11T13:44:08.176Z,101500.06
2023-02-11T13:46:53.506Z,101496.53
2023-02-11T13:49:26.514Z,101506.31
2023-02-11T13:51:57.192Z,101507.94
2023-02-11T13:54:29.055Z,101507.91
2023-02-11T13:57:23.394Z,101509.59
2023-02-11T13:59:54.089Z,101516.69
2023-02-11T14:02:42.800Z,101524.53
2023-02-11T14:05:50.568Z,101529.81
2023-02-11T14:08:39.545Z,101534.28
2023-02-11T14:11:13.059Z,101535.13
2023-02-11T14:14:09.676Z,101537.75
2023-02-11T14:16:59.729Z,101547.47
2023-02-11T14:19:35.577Z,101553.72
2023-02-11T14:22:08.177Z,101551.09
2023-02-11T14:24:51.500Z,101560.72
2023-02-11T14:27:29.850Z,101564.19
2023-02-11T14:30:17.139Z,101570.38
2023-02-11T14:32:53.598Z,101581.84
2023-02-11T14:35:27.681Z,101595.13
2023-02-11T14:38:03.818Z,101596.78
2023-02-11T14:40:34.827Z,101607.38
2023-02-11T14:43:09.317Z,101618.75
2023-02-11T14:45:41.967Z,101570.88
2023-02-11T14:48:16.787Z,101624.03
2023-02-11T14:50:50.064Z,101624.09
2023-02-11T14:53:23.542Z,101632.00
2023-02-11T14:55:54.495Z,101642.44
2023-02-11T14:58:25.773Z,101654.88
2023-02-11T15:00:56.971Z,101647.06
2023-02-11T15:03:35.349Z,101663.69
2023-02-11T15:06:06.774Z,101676.00
2023-02-11T15:08:39.749Z,101681.19
2023-02-11T15:11:12.278Z,101687.41
2023-02-11T15:13:47.715Z,101689.19
2023-02-11T15:16:19.741Z,101708.56
2023-02-11T15:18:52.949Z,101715.56
2023-02-11T15:21:23.810Z,101720.84
2023-02-11T15:24:00.109Z,101724.94
2023-02-11T15:26:29.950Z,101720.38
2023-02-11T15:29:00.044Z,101714.88
2023-02-11T15:31:31.244Z,101723.50
2023-02-11T15:34:08.775Z,101727.78
2023-02-11T15:36:39.364Z,101746.13
2023-02-11T15:39:32.240Z,101753.13
2023-02-11T15:42:20.356Z,101755.69
2023-02-11T15:44:56.481Z,101755.66
2023-02-11T15:47:26.604Z,101769.69
2023-02-11T15:49:58.840Z,101773.38
2023-02-11T15:52:29.435Z,101786.47
2023-02-11T15:55:02.664Z,101789.03
2023-02-11T15:57:32.523Z,101796.97
2023-02-11T16:00:07.472Z,101811.16
2023-02-11T16:02:45.391Z,101819.00
2023-02-11T16:05:29.914Z,101819.88
2023-02-11T16:08:01.424Z,101827.44
2023-02-11T16:10:33.996Z,101856.44
2023-02-11T16:13:18.547Z,101853.78
2023-02-11T16:15:51.282Z,101863.09
2023-02-11T16:18:36.813Z,101869.22
2023-02-11T16:21:08.432Z,101885.00
2023-02-11T16:23:39.712Z,101896.19
2023-02-11T16:26:13.974Z,101906.56
2023-02-11T16:28:43.704Z,101914.38
2023-02-11T16:31:14.082Z,101925.69
2023-02-11T16:33:43.842Z,101934.34
2023-02-11T16:36:15.443Z,101935.94
2023-02-11T16:38:45.284Z,101949.94
2023-02-11T16:41:18.145Z,101954.50
2023-02-11T16:43:48.000Z,101960.66
2023-02-11T16:46:18.245Z,101969.31
2023-02-11T16:48:48.053Z,101977.34
2023-02-11T16:51:18.312Z,101984.22
2023-02-11T16:53:48.022Z,101996.94
2023-02-11T16:56:20.131Z,102007.88
2023-02-11T16:58:50.913Z,102013.56
2023-02-11T17:01:21.195Z,102017.69
2023-02-11T17:03:51.640Z,102021.84
2023-02-11T17:06:21.690Z,102028.81
2023-02-11T17:08:51.448Z,102047.22
2023-02-11T17:11:23.497Z,102052.16
2023-02-11T17:13:53.237Z,102052.75
2023-02-11T17:16:25.429Z,102059.41
2023-02-11T17:18:55.366Z,102070.47
2023-02-11T17:21:29.858Z,102072.84
2023-02-11T17:23:59.958Z,102091.03
2023-02-11T17:26:32.766Z,102099.47
2023-02-11T17:29:02.774Z,102103.50
2023-02-11T17:31:33.259Z,102107.56
2023-02-11T17:34:03.126Z,102125.84
2023-02-11T17:36:33.759Z,102134.06
2023-02-11T17:39:06.387Z,102140.41
2023-02-11T17:41:40.068Z,102154.00
2023-02-11T17:44:12.892Z,102161.41
2023-02-11T17:46:43.093Z,102172.53
2023-02-11T17:49:13.168Z,102175.63
2023-02-11T17:51:43.296Z,102179.94
2023-02-11T17:54:13.978Z,102182.13
2023-02-11T17:56:46.052Z,102183.63
2023-02-11T17:59:15.903Z,102202.59
2023-02-11T18:01:46.052Z,102205.16
2023-02-11T18:04:16.554Z,102214.59
2023-02-11T18:06:47.331Z,102214.47
2023-02-11T18:09:17.207Z,102221.31
2023-02-11T18:11:52.698Z,102226.44
2023-02-11T18:14:22.926Z,102235.22
2023-02-11T18:16:53.453Z,102236.94
2023-02-11T18:19:25.195Z,102258.56
2023-02-11T18:21:55.379Z,102250.72
2023-02-11T18:24:25.076Z,102260.38
2023-02-11T18:26:56.555Z,102265.47
2023-02-11T18:29:26.737Z,102267.97
2023-02-11T18:31:58.344Z,102267.28
2023-02-11T18:34:28.218Z,102282.63
2023-02-11T18:36:58.669Z,102289.53
2023-02-11T18:39:29.239Z,102300.88
2023-02-11T18:42:01.379Z,102302.50
2023-02-11T18:44:31.333Z,102311.03
2023-02-11T18:47:01.722Z,102317.09
2023-02-11T18:49:31.744Z,102317.81
2023-02-11T18:52:02.391Z,102327.53
2023-02-11T18:54:32.155Z,102326.50
2023-02-11T18:57:04.166Z,102344.88
2023-02-11T18:59:34.038Z,102350.19
2023-02-11T19:02:04.462Z,102349.22
2023-02-11T19:04:34.413Z,102357.28
2023-02-11T19:07:04.920Z,102356.38
2023-02-11T19:09:34.823Z,102366.75
2023-02-11T19:12:08.350Z,102362.47
2023-02-11T19:14:38.889Z,102373.72
2023-02-11T19:17:11.056Z,102370.22
2023-02-11T19:19:41.308Z,102384.13
2023-02-11T19:22:12.102Z,102389.47
2023-02-11T19:24:42.102Z,102404.09
2023-02-11T19:27:15.017Z,102404.03
2023-02-11T19:29:44.898Z,102422.44
2023-02-11T19:32:16.111Z,102417.94
2023-02-11T19:34:45.803Z,102435.41
2023-02-11T19:37:16.217Z,102421.25
2023-02-11T19:39:46.091Z,102426.50
2023-02-11T19:42:17.731Z,102433.47
2023-02-11T19:44:47.397Z,102445.69
2023-02-11T19:47:18.271Z,102459.47
2023-02-11T19:49:48.059Z,102467.22
2023-02-11T19:52:18.459Z,102471.53
2023-02-11T19:54:48.218Z,102414.44
2023-02-11T19:57:19.760Z,102481.19
2023-02-11T19:59:49.566Z,102486.25
2023-02-11T20:02:19.820Z,102486.25
2023-02-11T20:04:49.704Z,102492.47
2023-02-11T20:07:20.078Z,102500.78
2023-02-11T20:09:50.060Z,102497.22
2023-02-11T20:12:21.851Z,102507.75
2023-02-11T20:14:51.615Z,102513.91
2023-02-11T20:17:21.927Z,102520.81
2023-02-11T20:19:51.601Z,102529.47
2023-02-11T20:22:21.865Z,102521.41
2023-02-11T20:24:51.895Z,102535.22
2023-02-11T20:27:24.336Z,102537.97
2023-02-11T20:29:54.237Z,102539.88
2023-02-11T20:32:24.286Z,102542.44
2023-02-11T20:34:54.210Z,102555.25
2023-02-11T20:37:24.415Z,102564.06
2023-02-11T20:39:55.154Z,102578.00
2023-02-11T20:42:27.045Z,102578.06
2023-02-11T20:44:56.652Z,102578.06
2023-02-11T20:47:26.715Z,102585.13
2023-02-11T20:49:56.617Z,102594.63
2023-02-11T20:52:26.794Z,102594.56
2023-02-11T20:54:56.290Z,102602.44
2023-02-11T20:57:29.027Z,102601.53
2023-02-11T20:59:59.342Z,102611.84
2023-02-11T21:02:31.839Z,102622.50
2023-02-11T21:05:01.884Z,102615.53
2023-02-11T21:07:32.236Z,102622.88
2023-02-11T21:10:02.321Z,102625.34
2023-02-11T21:12:34.068Z,102635.84
2023-02-11T21:15:05.791Z,102636.63
2023-02-11T21:17:36.082Z,102646.41
2023-02-11T21:20:09.295Z,102642.81
2023-02-11T21:22:41.510Z,102648.84
2023-02-11T21:25:14.070Z,102648.72
2023-02-11T21:27:49.178Z,102649.38
2023-02-11T21:30:22.390Z,102650.13
2023-02-11T21:32:54.397Z,102652.81
2023-02-11T21:35:24.802Z,102659.84
2023-02-11T21:37:55.001Z,102665.97
2023-02-11T21:40:27.692Z,102666.75
2023-02-11T21:43:00.432Z,102669.28
2023-02-11T21:45:32.408Z,102679.59
2023-02-11T21:48:02.841Z,102679.53
2023-02-11T21:50:32.729Z,102684.91
2023-02-11T21:53:05.323Z,102695.41
2023-02-11T21:55:37.419Z,102698.00
2023-02-11T21:58:09.003Z,102698.94
2023-02-11T22:00:38.792Z,102706.72
2023-02-11T22:03:09.210Z,102703.03
2023-02-11T22:05:41.246Z,102703.88
2023-02-11T22:08:11.156Z,102715.00
2023-02-11T22:10:40.791Z,102716.66
2023-02-11T22:13:12.174Z,102710.50
2023-02-11T22:15:41.854Z,102724.50
2023-02-11T22:18:14.185Z,102722.78
2023-02-11T22:20:46.904Z,102730.72
2023-02-11T22:23:20.708Z,102728.19
2023-02-11T22:25:53.924Z,102731.47
2023-02-11T22:28:29.265Z,102746.13
2023-02-11T22:31:04.929Z,102754.88
2023-02-11T22:33:36.113Z,102733.09
2023-02-11T22:36:07.487Z,102740.13
2023-02-11T22:38:37.574Z,102747.09
2023-02-11T22:41:08.501Z,102747.09
2023-02-11T22:43:40.676Z,102753.34
2023-02-11T22:46:12.432Z,102758.47
2023-02-11T22:48:42.523Z,102764.38
2023-02-11T22:51:13.689Z,102764.94
2023-02-11T22:53:44.850Z,102770.84
2023-02-11T22:56:15.911Z,102778.94
2023-02-11T22:58:47.874Z,102772.00
2023-02-11T23:01:18.574Z,102783.28
2023-02-11T23:03:49.085Z,102775.50
2023-02-11T23:06:19.177Z,102785.91
2023-02-11T23:08:50.164Z,102789.16
2023-02-11T23:11:21.705Z,102789.16
2023-02-11T23:13:53.755Z,102795.22
2023-02-11T23:16:25.056Z,102802.03
2023-02-11T23:18:55.867Z,102799.41
2023-02-11T23:21:28.708Z,102800.06
2023-02-11T23:24:00.754Z,102800.88
2023-02-11T23:26:31.051Z,102812.25
2023-02-11T23:29:03.096Z,102804.41
2023-02-11T23:31:34.919Z,102811.44
2023-02-11T23:34:05.794Z,102810.47
2023-02-11T23:36:35.954Z,102826.00
2023-02-11T23:39:07.573Z,102813.91
2023-02-11T23:41:37.401Z,102823.03
2023-02-11T23:44:09.460Z,102829.16
2023-02-11T23:46:39.707Z,102836.38
2023-02-11T23:49:10.264Z,102837.91
2023-02-11T23:51:40.002Z,102839.75
2023-02-11T23:54:12.120Z,102845.06
2023-02-11T23:56:42.706Z,102846.88
2023-02-11T23:59:14.488Z,102852.09
